Main page
METAR-TAF:

METAR-TAF

Airports :

Mont-De-Marsan, France

latitude: 43-55N, longitude: 000-30W, elevation: 62 m

Current weather observation

The report was made 27 minutes ago, at 10:00 UTC
Wind 6 kt from the East, varying between East/Northeast and Southeast
Temperature 9°C
Humidity 76%
Pressure 1016 hPa
Visibility 10 km or more
no clouds below 1500 m and no cumulonimbus

METAR: LFBM 061000Z AUTO 09006KT 060V140 CAVOK 09/05 Q1016 NOSIG

Time: 11:27 (10:27 UTC)

Forecast

The report was made 2 hours and 27 minutes ago, at 08:00 UTC
Forecast valid from 06 at 09 UTC to 07 at 09 UTC
Wind 6 kt from the East/Northeast
Visibility 10 km or more
no clouds below 1500 m and no cumulonimbus
Temporary
from 07 at 06 UTC to 07 at 09 UTC
Broken clouds at a height of 600 ft

TAF: LFBM 060800Z 0609/0709 07006KT CAVOK TEMPO 0706/0709 BKN006

Weather observations and forecasts of more than 4000 airports (METAR and TAF reports).

The available stations are represented by yellow and red dots on the map.

Hover mouse over dot to see the name of the station.

Then click to see weather observations and forecasts.

To change the map : click on the green buttons with a black cross to zoom in, on the green button with a dash to zoom out, or on the green arrows for adjacent maps.


METAR-TAF: